Time;durP1;ratioP1;P1;durP2;ratioP2;P2;SDS_P1;SDS_P2;PMS_P1;PMS_P2;Temp;Humidity;BMP_temperature;BMP_pressure;BME280_temperature;BME280_humidity;BME280_pressure;Samples;Min_cycle;Max_cycle;Signal;HPM_P1;HPM_P2
2023/10/15 00:00:35;;;;;;;4.20;0.45;;;8.40;99.90;;;;;;20273832;29;20041;-86
2023/10/15 00:10:36;;;;;;;2.55;0.95;;;8.40;99.90;;;;;;20276610;29;20115;-86
2023/10/15 00:20:40;;;;;;;5.47;1.08;;;8.30;99.90;;;;;;20262390;29;20051;-87
2023/10/15 00:30:42;;;;;;;6.78;0.90;;;8.30;99.90;;;;;;20257978;29;20050;-89
2023/10/15 00:40:45;;;;;;;6.53;0.93;;;8.20;99.90;;;;;;20260760;29;20677;-87
2023/10/15 00:50:47;;;;;;;2.78;0.90;;;8.20;99.90;;;;;;20258821;29;20056;-89
2023/10/15 01:11:15;;;;;;;6.07;0.57;;;8.50;99.90;;;;;;20289403;29;20052;-88
2023/10/15 01:21:16;;;;;;;1.90;0.50;;;8.40;99.90;;;;;;20269562;29;20556;-87
2023/10/15 01:31:17;;;;;;;2.47;0.65;;;8.10;99.90;;;;;;20272348;29;20100;-88
2023/10/15 01:41:19;;;;;;;3.53;0.98;;;8.00;99.90;;;;;;20272552;29;20496;-88
2023/10/15 01:51:20;;;;;;;2.80;0.50;;;8.00;99.90;;;;;;20264550;29;20059;-88
2023/10/15 02:01:20;;;;;;;1.85;1.00;;;8.10;99.90;;;;;;20272907;29;20075;-88
2023/10/15 02:11:24;;;;;;;1.80;0.50;;;8.10;99.90;;;;;;20265925;29;20051;-89
2023/10/15 02:21:25;;;;;;;3.50;0.90;;;8.10;99.90;;;;;;20292015;29;20044;-88
2023/10/15 02:41:42;;;;;;;3.85;0.68;;;7.90;99.90;;;;;;20867861;23;20052;-42
2023/10/15 02:51:45;;;;;;;5.20;0.80;;;7.80;99.90;;;;;;20287476;29;20130;-42
2023/10/15 03:01:46;;;;;;;4.07;0.82;;;7.70;99.90;;;;;;20289274;29;20051;-42
2023/10/15 03:11:51;;;;;;;3.45;0.77;;;7.80;99.90;;;;;;20293380;29;20060;-42
2023/10/15 03:21:58;;;;;;;2.60;0.70;;;7.70;99.90;;;;;;20275193;29;20040;-42
2023/10/15 03:32:09;;;;;;;5.88;0.63;;;7.90;99.90;;;;;;20275847;29;20060;-42
2023/10/15 03:52:20;;;;;;;1.67;0.40;;;7.80;99.90;;;;;;20256449;29;20115;-42
2023/10/15 04:12:43;;;;;;;4.40;0.70;;;7.60;99.90;;;;;;20256473;29;20149;-42
2023/10/15 04:22:45;;;;;;;5.35;0.63;;;7.40;99.90;;;;;;20252829;29;20062;-42
2023/10/15 04:32:47;;;;;;;3.63;0.40;;;7.30;99.90;;;;;;20263006;29;20056;-42
2023/10/15 04:42:50;;;;;;;2.35;0.52;;;7.20;99.90;;;;;;20268184;29;20052;-42
2023/10/15 04:52:51;;;;;;;1.95;0.43;;;7.10;99.90;;;;;;20258192;29;20563;-42
2023/10/15 05:02:52;;;;;;;1.38;0.30;;;6.80;99.90;;;;;;20275466;29;20075;-42
2023/10/15 05:12:52;;;;;;;2.97;0.60;;;6.70;99.90;;;;;;20268584;29;20063;-42
2023/10/15 05:22:53;;;;;;;4.27;0.43;;;7.10;99.90;;;;;;20266041;29;20052;-42
2023/10/15 05:32:53;;;;;;;2.77;0.67;;;7.20;99.90;;;;;;20264176;29;20833;-42
2023/10/15 05:42:54;;;;;;;6.90;0.68;;;7.00;99.90;;;;;;20262103;29;20379;-42
2023/10/15 05:52:54;;;;;;;6.03;0.88;;;7.10;99.90;;;;;;20260040;29;20045;-42
2023/10/15 06:02:56;;;;;;;2.25;0.50;;;7.30;99.90;;;;;;20268375;29;20395;-41
2023/10/15 06:12:57;;;;;;;3.40;0.77;;;7.20;99.90;;;;;;20242292;29;20044;-42
2023/10/15 06:23:00;;;;;;;4.30;0.88;;;7.40;99.90;;;;;;20267074;29;20048;-42
2023/10/15 06:33:01;;;;;;;3.65;0.70;;;7.40;99.90;;;;;;20262988;29;20063;-42
2023/10/15 06:43:01;;;;;;;4.45;0.60;;;7.50;99.90;;;;;;20259154;29;20151;-42
2023/10/15 06:53:05;;;;;;;5.75;0.60;;;7.50;99.90;;;;;;20264016;29;20040;-42
2023/10/15 07:03:05;;;;;;;4.50;0.80;;;7.60;99.90;;;;;;20259256;29;20159;-42
2023/10/15 07:13:06;;;;;;;5.28;0.75;;;7.50;99.90;;;;;;20211524;29;20479;-42
2023/10/15 07:23:07;;;;;;;9.40;1.65;;;7.40;99.90;;;;;;20249690;29;20360;-42
2023/10/15 07:33:08;;;;;;;3.53;0.73;;;7.30;99.90;;;;;;20256125;29;20070;-42
2023/10/15 07:43:08;;;;;;;6.45;0.63;;;7.50;99.90;;;;;;20256329;29;20056;-42
2023/10/15 07:53:09;;;;;;;0.80;0.20;;;7.70;99.90;;;;;;20256364;29;20074;-42
2023/10/15 08:03:10;;;;;;;4.95;0.45;;;7.70;99.90;;;;;;20261785;29;20059;-42
2023/10/15 08:13:12;;;;;;;5.03;0.60;;;7.70;99.90;;;;;;20253021;29;20298;-42
2023/10/15 08:23:13;;;;;;;2.28;0.40;;;7.60;99.90;;;;;;20256806;29;21100;-42
2023/10/15 08:33:14;;;;;;;3.97;0.60;;;7.70;99.90;;;;;;20247806;29;20092;-42
2023/10/15 08:43:21;;;;;;;4.82;0.57;;;8.00;99.90;;;;;;20253138;29;20063;-42
2023/10/15 08:53:22;;;;;;;4.90;0.97;;;8.10;99.90;;;;;;20250283;29;20052;-42
2023/10/15 09:03:25;;;;;;;2.20;0.47;;;8.50;99.90;;;;;;20263332;29;20052;-41
2023/10/15 09:13:26;;;;;;;2.20;0.45;;;8.60;99.90;;;;;;20266159;29;20540;-42
2023/10/15 09:23:31;;;;;;;7.32;1.15;;;8.10;99.90;;;;;;20276543;29;20159;-42
2023/10/15 09:33:33;;;;;;;7.10;0.77;;;8.20;99.90;;;;;;20275211;29;20058;-42
2023/10/15 09:43:37;;;;;;;8.73;0.73;;;8.40;99.90;;;;;;20277898;29;20056;-42
2023/10/15 09:53:41;;;;;;;6.22;0.60;;;8.40;99.90;;;;;;20276597;29;20080;-41
2023/10/15 10:03:48;;;;;;;2.42;0.52;;;8.60;99.90;;;;;;20267020;29;20056;-41
2023/10/15 10:14:09;;;;;;;5.07;0.70;;;8.70;99.90;;;;;;20278121;29;20135;-42
2023/10/15 10:24:12;;;;;;;3.63;0.50;;;8.70;99.90;;;;;;20245545;29;20066;-41
2023/10/15 10:34:14;;;;;;;3.53;0.68;;;8.70;99.90;;;;;;20264658;29;20408;-42
2023/10/15 10:44:24;;;;;;;15.25;7.38;;;9.00;99.90;;;;;;20266377;29;20044;-42
2023/10/15 10:54:25;;;;;;;6.20;0.90;;;9.30;99.90;;;;;;20275551;29;20216;-42
2023/10/15 11:04:25;;;;;;;1.35;0.30;;;9.60;99.90;;;;;;20261123;29;20152;-42
2023/10/15 11:14:29;;;;;;;1.52;0.65;;;9.60;99.90;;;;;;20263515;29;20522;-42
2023/10/15 11:24:30;;;;;;;0.95;0.22;;;9.90;99.90;;;;;;20269293;29;20051;-41
2023/10/15 11:34:32;;;;;;;2.60;0.38;;;10.20;1.00;;;;;;20264015;29;20043;-41
2023/10/15 11:44:37;;;;;;;4.10;0.50;;;10.00;1.00;;;;;;20266614;29;20098;-41
2023/10/15 11:54:48;;;;;;;4.50;0.50;;;10.00;1.00;;;;;;20256378;29;20040;-41
2023/10/15 12:04:51;;;;;;;2.45;0.63;;;11.20;1.00;;;;;;20226572;29;20048;-41
2023/10/15 12:14:51;;;;;;;6.85;0.93;;;11.30;1.00;;;;;;20260786;29;20048;-41
2023/10/15 12:24:52;;;;;;;4.88;0.50;;;11.90;1.00;;;;;;20267419;29;21425;-41
2023/10/15 12:34:54;;;;;;;4.78;0.65;;;11.20;1.00;;;;;;20261139;29;20080;-41
2023/10/15 12:44:55;;;;;;;5.72;0.90;;;10.50;1.00;;;;;;20250792;29;20061;-41
2023/10/15 12:54:56;;;;;;;6.20;0.80;;;10.30;1.00;;;;;;20281594;29;20127;-41
2023/10/15 13:04:56;;;;;;;4.10;0.50;;;10.30;1.00;;;;;;20285432;29;20087;-41
2023/10/15 13:14:58;;;;;;;3.97;0.90;;;11.40;1.00;;;;;;20287900;29;20040;-41
2023/10/15 13:24:59;;;;;;;2.22;0.40;;;12.10;1.00;;;;;;20285973;29;20155;-41
2023/10/15 13:34:59;;;;;;;2.88;0.40;;;11.30;1.00;;;;;;20284462;29;20037;-41
2023/10/15 13:45:00;;;;;;;2.92;0.35;;;10.50;1.00;;;;;;20282312;29;20060;-41
2023/10/15 13:55:01;;;;;;;2.00;0.47;;;11.00;1.00;;;;;;20281474;29;20040;-41
2023/10/15 14:05:05;;;;;;;2.50;0.50;;;11.70;1.00;;;;;;20282612;29;20453;-41
2023/10/15 14:15:06;;;;;;;2.20;0.30;;;11.90;1.00;;;;;;20284402;29;20182;-41
2023/10/15 14:25:07;;;;;;;3.33;0.52;;;11.50;1.00;;;;;;20282277;29;20564;-41
2023/10/15 14:35:09;;;;;;;5.78;0.80;;;11.10;1.00;;;;;;20280441;29;20411;-41
2023/10/15 14:45:11;;;;;;;4.32;0.60;;;10.60;1.00;;;;;;20276088;29;20497;-41
2023/10/15 14:55:12;;;;;;;4.00;0.70;;;11.00;1.00;;;;;;20266200;29;21066;-41
2023/10/15 15:05:13;;;;;;;3.80;0.60;;;11.00;1.00;;;;;;20267013;29;20056;-42
2023/10/15 15:15:14;;;;;;;4.32;1.02;;;10.90;1.00;;;;;;20265838;29;20421;-41
2023/10/15 15:25:14;;;;;;;2.65;0.50;;;10.60;1.00;;;;;;20265795;29;20063;-41
2023/10/15 15:35:18;;;;;;;4.80;0.50;;;10.60;1.00;;;;;;20255383;29;20044;-42
2023/10/15 15:45:19;;;;;;;2.70;0.52;;;10.40;1.00;;;;;;20228414;29;20150;-41
2023/10/15 15:55:21;;;;;;;4.03;2.13;;;10.20;1.00;;;;;;20247729;29;20147;-41
2023/10/15 16:05:21;;;;;;;2.90;1.15;;;10.20;1.00;;;;;;20233932;29;20501;-41
2023/10/15 16:15:22;;;;;;;3.50;0.57;;;9.70;1.00;;;;;;20255757;29;20079;-41
2023/10/15 16:25:23;;;;;;;4.03;0.88;;;9.50;14.60;;;;;;20241915;29;20508;-41
2023/10/15 16:35:23;;;;;;;2.70;0.80;;;9.40;39.20;;;;;;20248841;29;20056;-41
2023/10/15 16:45:24;;;;;;;3.95;1.13;;;9.20;52.10;;;;;;20246525;29;20661;-41
2023/10/15 16:55:25;;;;;;;4.93;1.45;;;9.30;95.80;;;;;;20246590;29;20063;-41
2023/10/15 17:05:25;;;;;;;3.38;0.95;;;9.30;91.70;;;;;;20250033;29;20076;-41
2023/10/15 17:15:26;;;;;;;3.22;0.60;;;9.40;50.30;;;;;;20258633;29;20048;-41
2023/10/15 17:25:26;;;;;;;4.28;0.90;;;9.20;42.80;;;;;;20256387;29;20044;-41
2023/10/15 17:35:27;;;;;;;5.38;2.40;;;9.00;65.60;;;;;;20255078;29;20056;-41
2023/10/15 17:45:28;;;;;;;4.85;2.45;;;8.90;92.50;;;;;;20242742;29;20055;-41
2023/10/15 17:55:28;;;;;;;6.47;2.40;;;8.80;93.20;;;;;;20262016;29;20138;-41
2023/10/15 18:05:29;;;;;;;8.30;4.25;;;8.60;91.70;;;;;;20255401;29;20051;-41
2023/10/15 18:15:29;;;;;;;4.82;2.13;;;8.40;99.90;;;;;;20261654;29;20844;-41
2023/10/15 18:25:30;;;;;;;6.07;2.28;;;8.20;99.90;;;;;;20265203;29;20115;-41
2023/10/15 18:35:31;;;;;;;6.93;1.90;;;8.10;99.90;;;;;;20262067;29;20528;-41
2023/10/15 18:45:34;;;;;;;4.18;1.60;;;8.20;99.90;;;;;;20266522;29;20059;-41
2023/10/15 18:55:35;;;;;;;5.18;1.80;;;8.10;99.90;;;;;;20266482;29;20242;-41
2023/10/15 19:05:36;;;;;;;6.43;2.10;;;8.00;99.90;;;;;;20266238;29;20036;-41
2023/10/15 19:15:37;;;;;;;6.40;4.70;;;7.80;99.90;;;;;;20263459;29;20052;-41
2023/10/15 19:25:38;;;;;;;7.65;3.55;;;7.70;99.90;;;;;;20257630;29;20526;-41
2023/10/15 19:35:38;;;;;;;6.30;3.58;;;7.70;99.90;;;;;;20246957;29;20070;-41
2023/10/15 19:45:39;;;;;;;5.25;2.53;;;7.70;99.90;;;;;;20252273;29;20060;-41
2023/10/15 19:55:39;;;;;;;7.30;3.60;;;7.80;99.90;;;;;;20249237;29;20044;-41
2023/10/15 20:05:40;;;;;;;8.52;3.25;;;7.80;99.90;;;;;;20255678;29;20162;-41
2023/10/15 20:15:42;;;;;;;7.63;3.67;;;8.00;99.90;;;;;;20257857;29;20052;-41
2023/10/15 20:25:44;;;;;;;9.32;4.00;;;8.10;99.90;;;;;;20253552;29;20508;-41
2023/10/15 20:35:44;;;;;;;10.13;3.60;;;8.20;99.90;;;;;;20240812;29;20518;-41
2023/10/15 20:45:46;;;;;;;8.60;2.83;;;8.30;99.90;;;;;;20254143;29;20131;-41
2023/10/15 20:55:47;;;;;;;8.70;3.47;;;8.40;99.90;;;;;;20254007;29;20036;-41
2023/10/15 21:05:47;;;;;;;6.88;3.05;;;8.20;99.90;;;;;;20239830;29;20147;-41
2023/10/15 21:15:48;;;;;;;4.23;2.30;;;8.10;99.90;;;;;;20252207;29;20048;-41
2023/10/15 21:25:48;;;;;;;11.65;2.45;;;8.10;99.90;;;;;;20235809;29;20627;-41
2023/10/15 21:35:49;;;;;;;6.32;1.90;;;8.40;99.90;;;;;;20244298;29;20067;-41
2023/10/15 21:45:49;;;;;;;8.48;2.25;;;8.20;99.90;;;;;;20260811;29;20147;-41
2023/10/15 21:55:50;;;;;;;11.07;2.85;;;8.30;99.90;;;;;;20249383;29;20491;-41
2023/10/15 22:05:50;;;;;;;7.10;2.58;;;8.40;99.90;;;;;;20248849;29;20052;-41
2023/10/15 22:15:54;;;;;;;8.15;2.40;;;8.50;99.90;;;;;;20239302;29;20032;-41
2023/10/15 22:25:55;;;;;;;7.97;2.20;;;8.50;99.90;;;;;;20247740;29;20464;-41
2023/10/15 22:35:56;;;;;;;6.45;2.50;;;8.40;99.90;;;;;;20220309;29;20093;-41
2023/10/15 22:45:57;;;;;;;7.80;2.50;;;8.40;99.90;;;;;;20239131;29;21461;-40
2023/10/15 22:55:58;;;;;;;5.70;1.80;;;8.50;99.90;;;;;;20239817;29;20051;-41
2023/10/15 23:06:00;;;;;;;7.90;2.08;;;8.40;99.90;;;;;;20238735;29;20468;-41
2023/10/15 23:16:02;;;;;;;5.03;1.60;;;8.20;99.90;;;;;;20246646;29;20048;-41
2023/10/15 23:26:02;;;;;;;6.82;1.63;;;8.00;99.90;;;;;;20236331;29;20044;-41
2023/10/15 23:36:06;;;;;;;4.90;1.77;;;7.90;99.90;;;;;;20238006;29;20151;-41
2023/10/15 23:46:07;;;;;;;6.63;2.05;;;7.90;99.90;;;;;;20236959;29;20368;-41
2023/10/15 23:56:08;;;;;;;3.67;1.85;;;7.80;99.90;;;;;;20235993;29;20059;-41
